sensor_id;sensor_type;location;lat;lon;timestamp;temperature;humidity
15967;DHT22;15175;48.154;11.534;2023-11-21T00:05:27;8.60;99.90
15967;DHT22;15175;48.154;11.534;2023-11-21T00:11:29;8.50;99.90
15967;DHT22;15175;48.154;11.534;2023-11-21T00:17:31;8.40;99.90
15967;DHT22;15175;48.154;11.534;2023-11-21T00:23:35;8.40;99.90
15967;DHT22;15175;48.154;11.534;2023-11-21T00:29:37;8.30;99.90
15967;DHT22;15175;48.154;11.534;2023-11-21T00:35:40;8.30;99.90
15967;DHT22;15175;48.154;11.534;2023-11-21T00:41:43;8.30;99.90
15967;DHT22;15175;48.154;11.534;2023-11-21T00:47:46;8.30;99.90
15967;DHT22;15175;48.154;11.534;2023-11-21T00:53:48;8.30;99.90
15967;DHT22;15175;48.154;11.534;2023-11-21T00:59:51;8.30;99.90
15967;DHT22;15175;48.154;11.534;2023-11-21T01:05:54;8.30;99.90
15967;DHT22;15175;48.154;11.534;2023-11-21T01:11:56;8.20;99.90
15967;DHT22;15175;48.154;11.534;2023-11-21T01:18:00;8.10;99.90
15967;DHT22;15175;48.154;11.534;2023-11-21T01:24:03;8.10;99.90
15967;DHT22;15175;48.154;11.534;2023-11-21T01:30:08;8.00;99.90
15967;DHT22;15175;48.154;11.534;2023-11-21T01:36:12;8.00;99.90
15967;DHT22;15175;48.154;11.534;2023-11-21T01:42:14;8.00;99.90
15967;DHT22;15175;48.154;11.534;2023-11-21T01:48:16;7.90;99.90
15967;DHT22;15175;48.154;11.534;2023-11-21T01:54:20;7.90;99.90
15967;DHT22;15175;48.154;11.534;2023-11-21T02:00:23;7.90;99.90
15967;DHT22;15175;48.154;11.534;2023-11-21T02:06:26;8.00;99.90
15967;DHT22;15175;48.154;11.534;2023-11-21T02:12:33;8.00;99.90
15967;DHT22;15175;48.154;11.534;2023-11-21T02:18:36;8.10;99.90
15967;DHT22;15175;48.154;11.534;2023-11-21T02:24:41;8.10;99.90
15967;DHT22;15175;48.154;11.534;2023-11-21T02:30:44;8.20;99.90
15967;DHT22;15175;48.154;11.534;2023-11-21T02:36:47;8.20;99.90
15967;DHT22;15175;48.154;11.534;2023-11-21T02:42:51;8.10;99.90
15967;DHT22;15175;48.154;11.534;2023-11-21T02:48:54;8.10;99.90
15967;DHT22;15175;48.154;11.534;2023-11-21T02:54:56;8.10;99.90
15967;DHT22;15175;48.154;11.534;2023-11-21T03:00:59;8.10;99.90
15967;DHT22;15175;48.154;11.534;2023-11-21T03:07:01;8.00;99.90
15967;DHT22;15175;48.154;11.534;2023-11-21T03:13:06;8.00;99.90
15967;DHT22;15175;48.154;11.534;2023-11-21T03:19:10;8.00;99.90
15967;DHT22;15175;48.154;11.534;2023-11-21T03:25:12;8.00;99.90
15967;DHT22;15175;48.154;11.534;2023-11-21T03:31:15;8.00;99.90
15967;DHT22;15175;48.154;11.534;2023-11-21T03:37:20;8.00;99.90
15967;DHT22;15175;48.154;11.534;2023-11-21T03:43:22;8.00;99.90
15967;DHT22;15175;48.154;11.534;2023-11-21T03:49:25;8.00;99.90
15967;DHT22;15175;48.154;11.534;2023-11-21T03:55:29;8.00;99.90
15967;DHT22;15175;48.154;11.534;2023-11-21T04:01:32;8.00;99.90
15967;DHT22;15175;48.154;11.534;2023-11-21T04:07:34;8.00;99.90
15967;DHT22;15175;48.154;11.534;2023-11-21T04:13:37;7.90;99.90
15967;DHT22;15175;48.154;11.534;2023-11-21T04:19:40;7.90;99.90
15967;DHT22;15175;48.154;11.534;2023-11-21T04:25:42;7.90;99.90
15967;DHT22;15175;48.154;11.534;2023-11-21T04:31:47;7.80;99.90
15967;DHT22;15175;48.154;11.534;2023-11-21T04:37:49;7.80;99.90
15967;DHT22;15175;48.154;11.534;2023-11-21T04:43:52;7.90;99.90
15967;DHT22;15175;48.154;11.534;2023-11-21T04:49:55;7.90;99.90
15967;DHT22;15175;48.154;11.534;2023-11-21T04:55:57;7.90;99.90
15967;DHT22;15175;48.154;11.534;2023-11-21T05:01:59;7.90;99.90
15967;DHT22;15175;48.154;11.534;2023-11-21T05:08:03;7.90;99.90
15967;DHT22;15175;48.154;11.534;2023-11-21T05:14:06;7.90;99.90
15967;DHT22;15175;48.154;11.534;2023-11-21T05:20:08;7.90;99.90
15967;DHT22;15175;48.154;11.534;2023-11-21T05:26:13;7.80;99.90
15967;DHT22;15175;48.154;11.534;2023-11-21T05:32:15;7.80;99.90
15967;DHT22;15175;48.154;11.534;2023-11-21T05:38:18;7.90;99.90
15967;DHT22;15175;48.154;11.534;2023-11-21T05:44:23;7.80;99.90
15967;DHT22;15175;48.154;11.534;2023-11-21T05:50:25;7.80;99.90
15967;DHT22;15175;48.154;11.534;2023-11-21T05:56:27;7.80;99.90
15967;DHT22;15175;48.154;11.534;2023-11-21T06:02:31;7.90;99.90
15967;DHT22;15175;48.154;11.534;2023-11-21T06:08:33;7.80;99.90
15967;DHT22;15175;48.154;11.534;2023-11-21T06:14:35;7.80;99.90
15967;DHT22;15175;48.154;11.534;2023-11-21T06:20:39;7.80;99.90
15967;DHT22;15175;48.154;11.534;2023-11-21T06:26:41;7.80;99.90
15967;DHT22;15175;48.154;11.534;2023-11-21T06:32:43;7.80;99.90
15967;DHT22;15175;48.154;11.534;2023-11-21T06:38:48;7.80;99.90
15967;DHT22;15175;48.154;11.534;2023-11-21T06:44:51;7.80;99.90
15967;DHT22;15175;48.154;11.534;2023-11-21T06:50:54;7.80;99.90
15967;DHT22;15175;48.154;11.534;2023-11-21T06:56:57;7.80;99.90
15967;DHT22;15175;48.154;11.534;2023-11-21T07:03:00;7.80;99.90
15967;DHT22;15175;48.154;11.534;2023-11-21T07:09:02;7.90;99.90
15967;DHT22;15175;48.154;11.534;2023-11-21T07:15:07;7.80;99.90
15967;DHT22;15175;48.154;11.534;2023-11-21T07:21:10;7.90;99.90
15967;DHT22;15175;48.154;11.534;2023-11-21T07:27:13;7.90;99.90
15967;DHT22;15175;48.154;11.534;2023-11-21T07:33:16;7.90;99.90
15967;DHT22;15175;48.154;11.534;2023-11-21T07:39:18;7.90;99.90
15967;DHT22;15175;48.154;11.534;2023-11-21T07:45:20;7.90;99.90
15967;DHT22;15175;48.154;11.534;2023-11-21T07:51:24;8.00;99.90
15967;DHT22;15175;48.154;11.534;2023-11-21T07:57:26;8.10;99.90
15967;DHT22;15175;48.154;11.534;2023-11-21T08:03:28;8.20;99.90
15967;DHT22;15175;48.154;11.534;2023-11-21T08:09:32;8.20;99.90
15967;DHT22;15175;48.154;11.534;2023-11-21T08:15:35;8.20;99.90
15967;DHT22;15175;48.154;11.534;2023-11-21T08:21:37;8.20;99.90
15967;DHT22;15175;48.154;11.534;2023-11-21T08:27:42;8.30;99.90
15967;DHT22;15175;48.154;11.534;2023-11-21T08:33:44;8.30;99.90
15967;DHT22;15175;48.154;11.534;2023-11-21T08:39:47;8.30;99.90
15967;DHT22;15175;48.154;11.534;2023-11-21T08:45:51;8.40;99.90
15967;DHT22;15175;48.154;11.534;2023-11-21T08:51:53;8.40;99.90
15967;DHT22;15175;48.154;11.534;2023-11-21T08:57:56;8.50;99.90
15967;DHT22;15175;48.154;11.534;2023-11-21T09:04:01;8.60;99.90
15967;DHT22;15175;48.154;11.534;2023-11-21T09:10:03;8.70;99.90
15967;DHT22;15175;48.154;11.534;2023-11-21T09:16:08;8.80;99.90
15967;DHT22;15175;48.154;11.534;2023-11-21T09:22:12;8.90;99.90
15967;DHT22;15175;48.154;11.534;2023-11-21T09:28:15;8.90;99.90
15967;DHT22;15175;48.154;11.534;2023-11-21T09:34:18;9.00;99.90
15967;DHT22;15175;48.154;11.534;2023-11-21T09:40:22;9.10;99.90
15967;DHT22;15175;48.154;11.534;2023-11-21T09:46:25;9.10;99.90
15967;DHT22;15175;48.154;11.534;2023-11-21T09:52:32;9.20;99.90
15967;DHT22;15175;48.154;11.534;2023-11-21T09:58:35;9.20;99.90
15967;DHT22;15175;48.154;11.534;2023-11-21T10:04:37;9.20;99.90
15967;DHT22;15175;48.154;11.534;2023-11-21T10:10:43;9.20;99.90
15967;DHT22;15175;48.154;11.534;2023-11-21T10:16:49;9.30;99.90
15967;DHT22;15175;48.154;11.534;2023-11-21T10:22:51;9.30;99.90
15967;DHT22;15175;48.154;11.534;2023-11-21T10:28:57;9.40;99.90
15967;DHT22;15175;48.154;11.534;2023-11-21T10:35:01;9.50;99.90
15967;DHT22;15175;48.154;11.534;2023-11-21T10:41:11;9.60;99.90
15967;DHT22;15175;48.154;11.534;2023-11-21T10:47:16;9.50;99.90
15967;DHT22;15175;48.154;11.534;2023-11-21T10:53:21;9.60;99.90
15967;DHT22;15175;48.154;11.534;2023-11-21T10:59:23;9.80;99.90
15967;DHT22;15175;48.154;11.534;2023-11-21T11:05:29;9.90;99.90
15967;DHT22;15175;48.154;11.534;2023-11-21T11:11:34;9.80;99.90
15967;DHT22;15175;48.154;11.534;2023-11-21T11:17:39;10.10;99.90
15967;DHT22;15175;48.154;11.534;2023-11-21T11:23:54;10.10;99.90
15967;DHT22;15175;48.154;11.534;2023-11-21T11:30:14;10.10;99.90
15967;DHT22;15175;48.154;11.534;2023-11-21T11:36:24;10.20;99.90
15967;DHT22;15175;48.154;11.534;2023-11-21T11:42:28;10.20;99.90
15967;DHT22;15175;48.154;11.534;2023-11-21T11:48:35;10.20;99.90
15967;DHT22;15175;48.154;11.534;2023-11-21T11:54:38;10.20;99.90
15967;DHT22;15175;48.154;11.534;2023-11-21T12:00:42;10.10;99.90
15967;DHT22;15175;48.154;11.534;2023-11-21T12:06:47;10.20;99.90
15967;DHT22;15175;48.154;11.534;2023-11-21T12:12:50;10.20;99.90
15967;DHT22;15175;48.154;11.534;2023-11-21T12:18:53;10.20;99.90
15967;DHT22;15175;48.154;11.534;2023-11-21T12:24:56;10.30;99.90
15967;DHT22;15175;48.154;11.534;2023-11-21T12:30:59;10.20;99.90
15967;DHT22;15175;48.154;11.534;2023-11-21T12:37:01;10.30;99.90
15967;DHT22;15175;48.154;11.534;2023-11-21T12:43:06;10.30;99.90
15967;DHT22;15175;48.154;11.534;2023-11-21T12:49:10;10.40;99.90
15967;DHT22;15175;48.154;11.534;2023-11-21T12:55:18;10.30;99.90
15967;DHT22;15175;48.154;11.534;2023-11-21T13:01:25;10.20;99.90
15967;DHT22;15175;48.154;11.534;2023-11-21T13:07:29;10.10;99.90
15967;DHT22;15175;48.154;11.534;2023-11-21T13:13:31;10.00;99.90
15967;DHT22;15175;48.154;11.534;2023-11-21T13:19:36;10.00;99.90
15967;DHT22;15175;48.154;11.534;2023-11-21T13:25:38;9.90;99.90
15967;DHT22;15175;48.154;11.534;2023-11-21T13:31:41;9.90;99.90
15967;DHT22;15175;48.154;11.534;2023-11-21T13:37:46;10.00;99.90
15967;DHT22;15175;48.154;11.534;2023-11-21T13:43:49;10.00;99.90
15967;DHT22;15175;48.154;11.534;2023-11-21T13:50:04;10.10;99.90
15967;DHT22;15175;48.154;11.534;2023-11-21T13:56:16;10.00;99.90
15967;DHT22;15175;48.154;11.534;2023-11-21T14:02:24;9.80;99.90
15967;DHT22;15175;48.154;11.534;2023-11-21T14:08:33;9.50;99.90
15967;DHT22;15175;48.154;11.534;2023-11-21T14:14:36;9.40;99.90
15967;DHT22;15175;48.154;11.534;2023-11-21T14:20:40;9.30;99.90
15967;DHT22;15175;48.154;11.534;2023-11-21T14:26:43;9.30;99.90
15967;DHT22;15175;48.154;11.534;2023-11-21T14:32:47;9.30;99.90
15967;DHT22;15175;48.154;11.534;2023-11-21T14:38:49;9.10;99.90
15967;DHT22;15175;48.154;11.534;2023-11-21T14:44:52;9.10;99.90
15967;DHT22;15175;48.154;11.534;2023-11-21T14:50:57;9.00;99.90
15967;DHT22;15175;48.154;11.534;2023-11-21T14:57:25;8.90;99.90
15967;DHT22;15175;48.154;11.534;2023-11-21T15:03:28;8.90;99.90
15967;DHT22;15175;48.154;11.534;2023-11-21T15:09:48;8.80;99.90
15967;DHT22;15175;48.154;11.534;2023-11-21T15:15:51;8.80;99.90
15967;DHT22;15175;48.154;11.534;2023-11-21T15:21:54;8.80;99.90
15967;DHT22;15175;48.154;11.534;2023-11-21T15:27:58;8.80;99.90
15967;DHT22;15175;48.154;11.534;2023-11-21T15:34:00;8.90;99.90
15967;DHT22;15175;48.154;11.534;2023-11-21T15:40:03;8.80;99.90
15967;DHT22;15175;48.154;11.534;2023-11-21T15:46:08;8.80;99.90
15967;DHT22;15175;48.154;11.534;2023-11-21T15:52:10;8.80;99.90
15967;DHT22;15175;48.154;11.534;2023-11-21T15:58:12;8.80;99.90
15967;DHT22;15175;48.154;11.534;2023-11-21T16:04:16;8.70;99.90
15967;DHT22;15175;48.154;11.534;2023-11-21T16:10:18;8.70;99.90
15967;DHT22;15175;48.154;11.534;2023-11-21T16:16:21;8.60;99.90
15967;DHT22;15175;48.154;11.534;2023-11-21T16:22:25;8.60;99.90
15967;DHT22;15175;48.154;11.534;2023-11-21T16:28:28;8.60;99.90
15967;DHT22;15175;48.154;11.534;2023-11-21T16:34:31;8.50;99.90
15967;DHT22;15175;48.154;11.534;2023-11-21T16:40:34;8.40;99.90
15967;DHT22;15175;48.154;11.534;2023-11-21T16:46:37;8.30;99.90
15967;DHT22;15175;48.154;11.534;2023-11-21T16:52:41;8.30;99.90
15967;DHT22;15175;48.154;11.534;2023-11-21T16:58:45;8.30;99.90
15967;DHT22;15175;48.154;11.534;2023-11-21T17:04:47;8.30;99.90
15967;DHT22;15175;48.154;11.534;2023-11-21T17:10:50;8.40;99.90
15967;DHT22;15175;48.154;11.534;2023-11-21T17:16:54;8.40;99.90
15967;DHT22;15175;48.154;11.534;2023-11-21T17:22:56;8.50;99.90
15967;DHT22;15175;48.154;11.534;2023-11-21T17:28:58;8.50;99.90
15967;DHT22;15175;48.154;11.534;2023-11-21T17:35:04;8.50;99.90
15967;DHT22;15175;48.154;11.534;2023-11-21T17:41:07;8.50;99.90
15967;DHT22;15175;48.154;11.534;2023-11-21T17:47:11;8.40;99.90
15967;DHT22;15175;48.154;11.534;2023-11-21T17:53:15;8.40;99.90
15967;DHT22;15175;48.154;11.534;2023-11-21T17:59:17;8.30;99.90
15967;DHT22;15175;48.154;11.534;2023-11-21T18:05:20;8.30;99.90
15967;DHT22;15175;48.154;11.534;2023-11-21T18:11:25;8.30;99.90
15967;DHT22;15175;48.154;11.534;2023-11-21T18:17:27;8.30;99.90
15967;DHT22;15175;48.154;11.534;2023-11-21T18:23:29;8.30;99.90
15967;DHT22;15175;48.154;11.534;2023-11-21T18:29:33;8.30;99.90
15967;DHT22;15175;48.154;11.534;2023-11-21T18:35:35;8.30;99.90
15967;DHT22;15175;48.154;11.534;2023-11-21T18:41:37;8.30;99.90
15967;DHT22;15175;48.154;11.534;2023-11-21T18:47:41;8.30;99.90
15967;DHT22;15175;48.154;11.534;2023-11-21T18:53:43;8.30;99.90
15967;DHT22;15175;48.154;11.534;2023-11-21T18:59:45;8.30;99.90
15967;DHT22;15175;48.154;11.534;2023-11-21T19:05:49;8.40;99.90
15967;DHT22;15175;48.154;11.534;2023-11-21T19:11:51;8.40;99.90
15967;DHT22;15175;48.154;11.534;2023-11-21T19:17:53;8.40;99.90
15967;DHT22;15175;48.154;11.534;2023-11-21T19:23:57;8.40;99.90
15967;DHT22;15175;48.154;11.534;2023-11-21T19:29:59;8.40;99.90
15967;DHT22;15175;48.154;11.534;2023-11-21T19:36:01;8.40;99.90
15967;DHT22;15175;48.154;11.534;2023-11-21T19:42:05;8.40;99.90
15967;DHT22;15175;48.154;11.534;2023-11-21T19:48:08;8.40;99.90
15967;DHT22;15175;48.154;11.534;2023-11-21T19:54:10;8.30;99.90
15967;DHT22;15175;48.154;11.534;2023-11-21T20:00:14;8.30;99.90
15967;DHT22;15175;48.154;11.534;2023-11-21T20:06:17;8.30;99.90
15967;DHT22;15175;48.154;11.534;2023-11-21T20:12:20;8.20;99.90
15967;DHT22;15175;48.154;11.534;2023-11-21T20:18:23;8.20;99.90
15967;DHT22;15175;48.154;11.534;2023-11-21T20:24:26;8.20;99.90
15967;DHT22;15175;48.154;11.534;2023-11-21T20:30:28;8.20;99.90
15967;DHT22;15175;48.154;11.534;2023-11-21T20:36:34;8.20;99.90
15967;DHT22;15175;48.154;11.534;2023-11-21T20:42:36;8.20;99.90
15967;DHT22;15175;48.154;11.534;2023-11-21T20:48:42;8.20;99.90
15967;DHT22;15175;48.154;11.534;2023-11-21T20:54:46;8.10;99.90
15967;DHT22;15175;48.154;11.534;2023-11-21T21:00:48;8.10;99.90
15967;DHT22;15175;48.154;11.534;2023-11-21T21:06:50;8.10;99.90
15967;DHT22;15175;48.154;11.534;2023-11-21T21:12:54;8.10;99.90
15967;DHT22;15175;48.154;11.534;2023-11-21T21:18:57;8.10;99.90
15967;DHT22;15175;48.154;11.534;2023-11-21T21:24:59;8.00;99.90
15967;DHT22;15175;48.154;11.534;2023-11-21T21:31:03;8.00;99.90
15967;DHT22;15175;48.154;11.534;2023-11-21T21:37:05;8.00;99.90
15967;DHT22;15175;48.154;11.534;2023-11-21T21:43:07;8.00;99.90
15967;DHT22;15175;48.154;11.534;2023-11-21T21:49:11;8.00;99.90
15967;DHT22;15175;48.154;11.534;2023-11-21T21:55:13;8.00;99.90
15967;DHT22;15175;48.154;11.534;2023-11-21T22:01:17;8.00;99.90
15967;DHT22;15175;48.154;11.534;2023-11-21T22:07:20;8.00;99.90
15967;DHT22;15175;48.154;11.534;2023-11-21T22:13:23;8.00;99.90
15967;DHT22;15175;48.154;11.534;2023-11-21T22:19:25;8.00;99.90
15967;DHT22;15175;48.154;11.534;2023-11-21T22:25:29;8.00;99.90
15967;DHT22;15175;48.154;11.534;2023-11-21T22:31:31;8.00;99.90
15967;DHT22;15175;48.154;11.534;2023-11-21T22:37:33;8.00;99.90
15967;DHT22;15175;48.154;11.534;2023-11-21T22:43:37;8.00;99.90
15967;DHT22;15175;48.154;11.534;2023-11-21T22:49:39;8.00;99.90
15967;DHT22;15175;48.154;11.534;2023-11-21T22:55:41;8.00;99.90
15967;DHT22;15175;48.154;11.534;2023-11-21T23:01:47;8.00;99.90
15967;DHT22;15175;48.154;11.534;2023-11-21T23:07:50;8.00;99.90
15967;DHT22;15175;48.154;11.534;2023-11-21T23:13:52;8.00;99.90
15967;DHT22;15175;48.154;11.534;2023-11-21T23:19:56;8.00;99.90
15967;DHT22;15175;48.154;11.534;2023-11-21T23:25:58;8.00;99.90
15967;DHT22;15175;48.154;11.534;2023-11-21T23:32:01;7.90;99.90
15967;DHT22;15175;48.154;11.534;2023-11-21T23:38:05;7.90;99.90
15967;DHT22;15175;48.154;11.534;2023-11-21T23:44:07;7.90;99.90
15967;DHT22;15175;48.154;11.534;2023-11-21T23:50:09;7.90;99.90
15967;DHT22;15175;48.154;11.534;2023-11-21T23:56:13;7.90;99.90
